sensor_id;sensor_type;location;lat;lon;timestamp;pressure;altitude;pressure_sealevel;temperature;humidity
42601;BME280;28229;48.856;9.088;2023-09-08T00:02:10;98165.88;;;16.55;85.50
42601;BME280;28229;48.856;9.088;2023-09-08T00:04:36;98162.06;;;16.46;85.81
42601;BME280;28229;48.856;9.088;2023-09-08T00:07:02;98161.75;;;16.42;86.63
42601;BME280;28229;48.856;9.088;2023-09-08T00:09:30;98152.94;;;16.36;86.82
42601;BME280;28229;48.856;9.088;2023-09-08T00:11:56;98154.53;;;16.37;86.92
42601;BME280;28229;48.856;9.088;2023-09-08T00:14:22;98160.34;;;16.34;87.14
42601;BME280;28229;48.856;9.088;2023-09-08T00:16:48;98158.81;;;16.39;87.11
42601;BME280;28229;48.856;9.088;2023-09-08T00:19:14;98160.31;;;16.29;87.48
42601;BME280;28229;48.856;9.088;2023-09-08T00:21:40;98149.09;;;16.27;87.02
42601;BME280;28229;48.856;9.088;2023-09-08T00:24:09;98157.03;;;16.22;87.52
42601;BME280;28229;48.856;9.088;2023-09-08T00:26:35;98148.50;;;16.20;87.76
42601;BME280;28229;48.856;9.088;2023-09-08T00:29:01;98160.13;;;16.14;88.37
42601;BME280;28229;48.856;9.088;2023-09-08T00:31:27;98159.56;;;16.12;88.66
42601;BME280;28229;48.856;9.088;2023-09-08T00:33:53;98158.41;;;16.03;89.42
42601;BME280;28229;48.856;9.088;2023-09-08T00:36:19;98159.38;;;15.96;89.31
42601;BME280;28229;48.856;9.088;2023-09-08T00:38:45;98153.75;;;15.93;89.38
42601;BME280;28229;48.856;9.088;2023-09-08T00:41:11;98160.84;;;15.87;90.05
42601;BME280;28229;48.856;9.088;2023-09-08T00:43:38;98169.34;;;15.89;89.71
42601;BME280;28229;48.856;9.088;2023-09-08T00:46:04;98168.19;;;15.80;89.76
42601;BME280;28229;48.856;9.088;2023-09-08T00:48:31;98162.81;;;15.75;90.12
42601;BME280;28229;48.856;9.088;2023-09-08T00:50:58;98159.13;;;15.76;90.27
42601;BME280;28229;48.856;9.088;2023-09-08T00:53:25;98161.16;;;15.74;90.48
42601;BME280;28229;48.856;9.088;2023-09-08T00:55:51;98162.06;;;15.63;90.58
42601;BME280;28229;48.856;9.088;2023-09-08T00:58:18;98157.94;;;15.72;90.00
42601;BME280;28229;48.856;9.088;2023-09-08T01:00:44;98157.31;;;15.65;90.25
42601;BME280;28229;48.856;9.088;2023-09-08T01:03:11;98158.94;;;15.66;89.89
42601;BME280;28229;48.856;9.088;2023-09-08T01:05:39;98154.75;;;15.70;90.04
42601;BME280;28229;48.856;9.088;2023-09-08T01:08:08;98153.41;;;15.67;90.38
42601;BME280;28229;48.856;9.088;2023-09-08T01:10:35;98152.53;;;15.61;90.33
42601;BME280;28229;48.856;9.088;2023-09-08T01:13:03;98155.09;;;15.56;90.41
42601;BME280;28229;48.856;9.088;2023-09-08T01:15:29;98154.78;;;15.53;90.71
42601;BME280;28229;48.856;9.088;2023-09-08T01:17:59;98156.16;;;15.55;90.26
42601;BME280;28229;48.856;9.088;2023-09-08T01:20:41;98155.28;;;15.50;90.86
42601;BME280;28229;48.856;9.088;2023-09-08T01:23:19;98155.59;;;15.53;90.30
42601;BME280;28229;48.856;9.088;2023-09-08T01:26:08;98150.03;;;15.55;90.59
42601;BME280;28229;48.856;9.088;2023-09-08T01:28:35;98155.91;;;15.57;90.29
42601;BME280;28229;48.856;9.088;2023-09-08T01:31:03;98156.63;;;15.52;90.71
42601;BME280;28229;48.856;9.088;2023-09-08T01:33:30;98166.75;;;15.55;90.84
42601;BME280;28229;48.856;9.088;2023-09-08T01:35:56;98156.56;;;15.47;91.42
42601;BME280;28229;48.856;9.088;2023-09-08T01:38:24;98158.66;;;15.45;91.76
42601;BME280;28229;48.856;9.088;2023-09-08T01:40:50;98157.53;;;15.41;91.65
42601;BME280;28229;48.856;9.088;2023-09-08T01:43:17;98151.34;;;15.35;91.61
42601;BME280;28229;48.856;9.088;2023-09-08T01:45:43;98147.97;;;15.40;90.51
42601;BME280;28229;48.856;9.088;2023-09-08T01:48:09;98150.56;;;15.35;90.57
42601;BME280;28229;48.856;9.088;2023-09-08T01:50:35;98142.84;;;15.33;90.53
42601;BME280;28229;48.856;9.088;2023-09-08T01:53:02;98141.97;;;15.28;91.30
42601;BME280;28229;48.856;9.088;2023-09-08T01:55:28;98138.25;;;15.29;91.33
42601;BME280;28229;48.856;9.088;2023-09-08T01:57:56;98143.66;;;15.34;91.50
42601;BME280;28229;48.856;9.088;2023-09-08T02:00:22;98144.63;;;15.28;92.38
42601;BME280;28229;48.856;9.088;2023-09-08T02:02:51;98141.91;;;15.22;92.67
42601;BME280;28229;48.856;9.088;2023-09-08T02:05:17;98146.69;;;15.26;93.18
42601;BME280;28229;48.856;9.088;2023-09-08T02:07:43;98142.53;;;15.30;93.06
42601;BME280;28229;48.856;9.088;2023-09-08T02:10:09;98148.38;;;15.32;93.43
42601;BME280;28229;48.856;9.088;2023-09-08T02:12:36;98145.19;;;15.30;94.44
42601;BME280;28229;48.856;9.088;2023-09-08T02:15:03;98140.84;;;15.23;95.05
42601;BME280;28229;48.856;9.088;2023-09-08T02:17:31;98144.53;;;15.22;95.13
42601;BME280;28229;48.856;9.088;2023-09-08T02:19:59;98144.88;;;15.26;94.55
42601;BME280;28229;48.856;9.088;2023-09-08T02:22:25;98133.94;;;15.22;94.54
42601;BME280;28229;48.856;9.088;2023-09-08T02:24:51;98136.03;;;15.20;94.38
42601;BME280;28229;48.856;9.088;2023-09-08T02:27:19;98128.31;;;15.19;94.33
42601;BME280;28229;48.856;9.088;2023-09-08T02:29:48;98138.94;;;15.19;93.10
42601;BME280;28229;48.856;9.088;2023-09-08T02:32:14;98137.47;;;15.11;93.31
42601;BME280;28229;48.856;9.088;2023-09-08T02:34:43;98141.66;;;15.07;93.21
42601;BME280;28229;48.856;9.088;2023-09-08T02:37:10;98145.00;;;15.02;93.62
42601;BME280;28229;48.856;9.088;2023-09-08T02:39:37;98140.38;;;14.93;93.72
42601;BME280;28229;48.856;9.088;2023-09-08T02:42:03;98144.53;;;14.89;94.61
42601;BME280;28229;48.856;9.088;2023-09-08T02:44:31;98138.91;;;14.85;95.09
42601;BME280;28229;48.856;9.088;2023-09-08T02:46:58;98136.88;;;14.75;95.29
42601;BME280;28229;48.856;9.088;2023-09-08T02:49:25;98137.44;;;14.77;95.72
42601;BME280;28229;48.856;9.088;2023-09-08T02:51:51;98138.41;;;14.71;95.83
42601;BME280;28229;48.856;9.088;2023-09-08T02:54:17;98138.41;;;14.71;95.99
42601;BME280;28229;48.856;9.088;2023-09-08T02:56:43;98141.47;;;14.80;95.84
42601;BME280;28229;48.856;9.088;2023-09-08T02:59:10;98140.34;;;14.76;96.14
42601;BME280;28229;48.856;9.088;2023-09-08T03:01:37;98136.09;;;14.75;96.25
42601;BME280;28229;48.856;9.088;2023-09-08T03:04:03;98138.19;;;14.73;96.18
42601;BME280;28229;48.856;9.088;2023-09-08T03:06:31;98133.13;;;14.71;95.65
42601;BME280;28229;48.856;9.088;2023-09-08T03:08:58;98142.25;;;14.63;95.57
42601;BME280;28229;48.856;9.088;2023-09-08T03:11:24;98132.94;;;14.61;95.89
42601;BME280;28229;48.856;9.088;2023-09-08T03:13:50;98135.03;;;14.59;95.59
42601;BME280;28229;48.856;9.088;2023-09-08T03:16:17;98137.09;;;14.57;95.55
42601;BME280;28229;48.856;9.088;2023-09-08T03:18:43;98139.16;;;14.55;95.75
42601;BME280;28229;48.856;9.088;2023-09-08T03:21:09;98130.16;;;14.56;95.88
42601;BME280;28229;48.856;9.088;2023-09-08T03:23:39;98132.16;;;14.48;96.46
42601;BME280;28229;48.856;9.088;2023-09-08T03:26:05;98134.22;;;14.58;96.25
42601;BME280;28229;48.856;9.088;2023-09-08T03:28:33;98131.94;;;14.50;96.60
42601;BME280;28229;48.856;9.088;2023-09-08T03:31:03;98131.94;;;14.50;97.17
42601;BME280;28229;48.856;9.088;2023-09-08T03:33:32;98130.38;;;14.37;97.88
42601;BME280;28229;48.856;9.088;2023-09-08T03:35:59;98124.34;;;14.42;97.29
42601;BME280;28229;48.856;9.088;2023-09-08T03:38:25;98134.63;;;14.38;97.43
42601;BME280;28229;48.856;9.088;2023-09-08T03:40:53;98134.94;;;14.42;96.64
42601;BME280;28229;48.856;9.088;2023-09-08T03:43:20;98139.13;;;14.38;96.77
42601;BME280;28229;48.856;9.088;2023-09-08T03:45:46;98142.00;;;14.36;95.92
42601;BME280;28229;48.856;9.088;2023-09-08T03:48:13;98136.53;;;14.26;96.66
42601;BME280;28229;48.856;9.088;2023-09-08T03:50:40;98133.88;;;14.26;96.56
42601;BME280;28229;48.856;9.088;2023-09-08T03:53:06;98137.31;;;14.26;97.06
42601;BME280;28229;48.856;9.088;2023-09-08T03:55:32;98135.47;;;14.27;96.83
42601;BME280;28229;48.856;9.088;2023-09-08T03:57:58;98140.19;;;14.25;97.22
42601;BME280;28229;48.856;9.088;2023-09-08T04:00:24;98133.38;;;14.00;100.00
42601;BME280;28229;48.856;9.088;2023-09-08T04:02:54;98134.84;;;14.08;99.62
42601;BME280;28229;48.856;9.088;2023-09-08T04:05:20;98132.91;;;14.03;99.95
42601;BME280;28229;48.856;9.088;2023-09-08T04:07:46;98135.66;;;14.08;100.00
42601;BME280;28229;48.856;9.088;2023-09-08T04:10:13;98148.16;;;14.13;100.00
42601;BME280;28229;48.856;9.088;2023-09-08T04:12:40;98146.25;;;14.08;100.00
42601;BME280;28229;48.856;9.088;2023-09-08T04:15:08;98143.69;;;14.14;100.00
42601;BME280;28229;48.856;9.088;2023-09-08T04:17:34;98150.59;;;14.15;100.00
42601;BME280;28229;48.856;9.088;2023-09-08T04:20:03;98149.66;;;14.21;100.00
42601;BME280;28229;48.856;9.088;2023-09-08T04:22:31;98147.25;;;14.19;99.55
42601;BME280;28229;48.856;9.088;2023-09-08T04:24:58;98156.78;;;14.20;99.28
42601;BME280;28229;48.856;9.088;2023-09-08T04:27:25;98152.00;;;14.05;100.00
42601;BME280;28229;48.856;9.088;2023-09-08T04:29:51;98146.69;;;14.05;99.91
42601;BME280;28229;48.856;9.088;2023-09-08T04:32:18;98137.75;;;14.06;99.20
42601;BME280;28229;48.856;9.088;2023-09-08T04:34:44;98139.47;;;14.01;99.43
42601;BME280;28229;48.856;9.088;2023-09-08T04:37:10;98150.63;;;14.03;98.88
42601;BME280;28229;48.856;9.088;2023-09-08T04:39:36;98147.16;;;14.02;98.91
42601;BME280;28229;48.856;9.088;2023-09-08T04:42:06;98158.91;;;14.06;98.82
42601;BME280;28229;48.856;9.088;2023-09-08T04:44:33;98151.66;;;14.02;99.38
42601;BME280;28229;48.856;9.088;2023-09-08T04:47:00;98156.59;;;13.98;99.99
42601;BME280;28229;48.856;9.088;2023-09-08T04:49:26;98142.81;;;13.96;100.00
42601;BME280;28229;48.856;9.088;2023-09-08T04:51:54;98153.72;;;14.00;100.00
42601;BME280;28229;48.856;9.088;2023-09-08T04:54:23;98154.09;;;13.92;100.00
42601;BME280;28229;48.856;9.088;2023-09-08T04:56:53;98154.53;;;13.88;100.00
42601;BME280;28229;48.856;9.088;2023-09-08T04:59:20;98151.16;;;13.76;100.00
42601;BME280;28229;48.856;9.088;2023-09-08T05:01:50;98158.81;;;13.78;100.00
42601;BME280;28229;48.856;9.088;2023-09-08T05:04:17;98152.97;;;13.76;100.00
42601;BME280;28229;48.856;9.088;2023-09-08T05:06:44;98157.78;;;13.79;100.00
42601;BME280;28229;48.856;9.088;2023-09-08T05:09:11;98160.22;;;13.80;100.00
42601;BME280;28229;48.856;9.088;2023-09-08T05:11:38;98159.41;;;13.80;100.00
42601;BME280;28229;48.856;9.088;2023-09-08T05:14:04;98153.31;;;13.79;100.00
42601;BME280;28229;48.856;9.088;2023-09-08T05:16:31;98147.91;;;13.86;100.00
42601;BME280;28229;48.856;9.088;2023-09-08T05:19:07;98148.69;;;13.86;100.00
42601;BME280;28229;48.856;9.088;2023-09-08T05:21:36;98152.94;;;13.99;100.00
42601;BME280;28229;48.856;9.088;2023-09-08T05:24:04;98152.00;;;14.05;100.00
42601;BME280;28229;48.856;9.088;2023-09-08T05:26:31;98158.75;;;14.13;100.00
42601;BME280;28229;48.856;9.088;2023-09-08T05:28:58;98155.31;;;14.13;100.00
42601;BME280;28229;48.856;9.088;2023-09-08T05:31:24;98163.91;;;14.20;100.00
42601;BME280;28229;48.856;9.088;2023-09-08T05:33:51;98166.44;;;14.26;100.00
42601;BME280;28229;48.856;9.088;2023-09-08T05:36:17;98174.25;;;14.33;100.00
42601;BME280;28229;48.856;9.088;2023-09-08T05:38:43;98173.28;;;14.39;99.84
42601;BME280;28229;48.856;9.088;2023-09-08T05:41:10;98174.91;;;14.40;99.24
42601;BME280;28229;48.856;9.088;2023-09-08T05:43:37;98178.59;;;14.39;100.00
42601;BME280;28229;48.856;9.088;2023-09-08T05:46:03;98174.25;;;14.33;99.16
42601;BME280;28229;48.856;9.088;2023-09-08T05:48:31;98175.94;;;14.39;98.90
42601;BME280;28229;48.856;9.088;2023-09-08T05:50:58;98182.91;;;14.45;98.31
42601;BME280;28229;48.856;9.088;2023-09-08T05:53:25;98174.75;;;14.47;98.39
42601;BME280;28229;48.856;9.088;2023-09-08T05:55:52;98181.16;;;14.63;98.23
42601;BME280;28229;48.856;9.088;2023-09-08T05:58:18;98183.19;;;14.73;99.20
42601;BME280;28229;48.856;9.088;2023-09-08T06:00:45;98179.22;;;14.87;98.77
42601;BME280;28229;48.856;9.088;2023-09-08T06:03:11;98171.03;;;15.06;98.41
42601;BME280;28229;48.856;9.088;2023-09-08T06:05:37;98175.19;;;15.18;97.44
42601;BME280;28229;48.856;9.088;2023-09-08T06:08:05;98178.81;;;15.29;98.92
42601;BME280;28229;48.856;9.088;2023-09-08T06:10:31;98173.34;;;15.36;96.51
42601;BME280;28229;48.856;9.088;2023-09-08T06:12:58;98174.56;;;15.45;95.24
42601;BME280;28229;48.856;9.088;2023-09-08T06:15:24;98171.25;;;15.55;94.70
42601;BME280;28229;48.856;9.088;2023-09-08T06:17:51;98170.19;;;15.56;94.30
42601;BME280;28229;48.856;9.088;2023-09-08T06:20:17;98180.97;;;15.66;94.61
42601;BME280;28229;48.856;9.088;2023-09-08T06:22:43;98178.63;;;15.87;93.00
42601;BME280;28229;48.856;9.088;2023-09-08T06:25:10;98170.44;;;15.88;92.90
42601;BME280;28229;48.856;9.088;2023-09-08T06:27:37;98171.66;;;16.03;92.06
42601;BME280;28229;48.856;9.088;2023-09-08T06:30:04;98175.56;;;16.17;91.12
42601;BME280;28229;48.856;9.088;2023-09-08T06:32:32;98172.97;;;16.22;90.76
42601;BME280;28229;48.856;9.088;2023-09-08T06:34:59;98169.97;;;16.41;90.13
42601;BME280;28229;48.856;9.088;2023-09-08T06:37:25;98179.09;;;16.50;89.66
42601;BME280;28229;48.856;9.088;2023-09-08T06:39:54;98180.25;;;16.59;89.47
42601;BME280;28229;48.856;9.088;2023-09-08T06:42:21;98180.91;;;16.71;89.37
42601;BME280;28229;48.856;9.088;2023-09-08T06:44:55;98182.63;;;16.83;88.54
42601;BME280;28229;48.856;9.088;2023-09-08T06:47:21;98175.31;;;16.95;87.42
42601;BME280;28229;48.856;9.088;2023-09-08T06:49:47;98183.66;;;17.09;86.85
42601;BME280;28229;48.856;9.088;2023-09-08T06:52:13;98189.13;;;17.24;86.13
42601;BME280;28229;48.856;9.088;2023-09-08T06:54:41;98184.97;;;17.39;84.30
42601;BME280;28229;48.856;9.088;2023-09-08T06:57:07;98189.03;;;17.51;83.85
42601;BME280;28229;48.856;9.088;2023-09-08T06:59:33;98175.34;;;17.70;83.59
42601;BME280;28229;48.856;9.088;2023-09-08T07:02:00;98184.19;;;17.81;81.58
42601;BME280;28229;48.856;9.088;2023-09-08T07:04:26;98180.31;;;17.99;81.50
42601;BME280;28229;48.856;9.088;2023-09-08T07:06:52;98184.09;;;18.13;81.02
42601;BME280;28229;48.856;9.088;2023-09-08T07:09:20;98178.81;;;18.34;80.05
42601;BME280;28229;48.856;9.088;2023-09-08T07:11:47;98179.66;;;18.50;79.13
42601;BME280;28229;48.856;9.088;2023-09-08T07:14:13;98181.56;;;18.70;78.58
42601;BME280;28229;48.856;9.088;2023-09-08T07:16:39;98176.56;;;18.83;77.70
42601;BME280;28229;48.856;9.088;2023-09-08T07:19:06;98182.19;;;19.08;76.70
42601;BME280;28229;48.856;9.088;2023-09-08T07:21:33;98186.19;;;19.15;75.25
42601;BME280;28229;48.856;9.088;2023-09-08T07:24:00;98192.31;;;19.31;75.47
42601;BME280;28229;48.856;9.088;2023-09-08T07:26:26;98187.50;;;19.49;75.12
42601;BME280;28229;48.856;9.088;2023-09-08T07:28:52;98189.06;;;19.70;74.21
42601;BME280;28229;48.856;9.088;2023-09-08T07:31:19;98186.91;;;19.93;73.44
42601;BME280;28229;48.856;9.088;2023-09-08T07:33:47;98189.50;;;20.08;72.29
42601;BME280;28229;48.856;9.088;2023-09-08T07:36:14;98184.41;;;20.22;72.57
42601;BME280;28229;48.856;9.088;2023-09-08T07:38:41;98190.44;;;20.43;71.70
42601;BME280;28229;48.856;9.088;2023-09-08T07:41:13;98181.25;;;20.60;70.36
42601;BME280;28229;48.856;9.088;2023-09-08T07:43:39;98188.91;;;20.82;70.01
42601;BME280;28229;48.856;9.088;2023-09-08T07:46:09;98191.75;;;20.96;68.73
42601;BME280;28229;48.856;9.088;2023-09-08T07:48:35;98195.75;;;20.98;68.41
42601;BME280;28229;48.856;9.088;2023-09-08T07:51:01;98184.09;;;21.18;68.60
42601;BME280;28229;48.856;9.088;2023-09-08T07:53:27;98191.41;;;21.37;67.43
42601;BME280;28229;48.856;9.088;2023-09-08T07:55:53;98181.22;;;21.39;66.35
42601;BME280;28229;48.856;9.088;2023-09-08T07:58:20;98183.25;;;21.57;65.69
42601;BME280;28229;48.856;9.088;2023-09-08T08:00:46;98184.16;;;21.72;65.04
42601;BME280;28229;48.856;9.088;2023-09-08T08:03:14;98192.09;;;21.82;64.55
42601;BME280;28229;48.856;9.088;2023-09-08T08:05:40;98182.31;;;21.96;64.29
42601;BME280;28229;48.856;9.088;2023-09-08T08:08:06;98186.38;;;22.13;63.23
42601;BME280;28229;48.856;9.088;2023-09-08T08:10:35;98184.94;;;22.20;62.58
42601;BME280;28229;48.856;9.088;2023-09-08T08:13:01;98186.75;;;22.30;62.93
42601;BME280;28229;48.856;9.088;2023-09-08T08:15:37;98180.47;;;22.59;62.41
42601;BME280;28229;48.856;9.088;2023-09-08T08:18:07;98181.53;;;22.77;61.66
42601;BME280;28229;48.856;9.088;2023-09-08T08:20:36;98180.34;;;23.02;61.25
42601;BME280;28229;48.856;9.088;2023-09-08T08:23:03;98182.06;;;23.31;61.00
42601;BME280;28229;48.856;9.088;2023-09-08T08:25:29;98188.09;;;23.55;60.01
42601;BME280;28229;48.856;9.088;2023-09-08T08:27:56;98183.38;;;23.80;58.48
42601;BME280;28229;48.856;9.088;2023-09-08T08:30:27;98186.75;;;24.00;58.32
42601;BME280;28229;48.856;9.088;2023-09-08T08:32:53;98180.75;;;24.17;58.22
42601;BME280;28229;48.856;9.088;2023-09-08T08:35:20;98177.56;;;24.42;57.87
42601;BME280;28229;48.856;9.088;2023-09-08T08:37:46;98186.72;;;24.55;57.23
42601;BME280;28229;48.856;9.088;2023-09-08T08:40:12;98178.28;;;24.70;55.96
42601;BME280;28229;48.856;9.088;2023-09-08T08:42:39;98181.50;;;24.73;55.42
42601;BME280;28229;48.856;9.088;2023-09-08T08:45:06;98187.84;;;24.77;54.22
42601;BME280;28229;48.856;9.088;2023-09-08T08:47:33;98182.94;;;24.79;54.21
42601;BME280;28229;48.856;9.088;2023-09-08T08:50:00;98185.81;;;24.82;54.68
42601;BME280;28229;48.856;9.088;2023-09-08T08:52:28;98182.56;;;25.08;55.26
42601;BME280;28229;48.856;9.088;2023-09-08T08:54:55;98175.47;;;25.43;54.20
42601;BME280;28229;48.856;9.088;2023-09-08T08:57:24;98176.53;;;25.65;52.74
42601;BME280;28229;48.856;9.088;2023-09-08T08:59:53;98171.56;;;25.90;52.25
42601;BME280;28229;48.856;9.088;2023-09-08T09:02:21;98174.19;;;26.03;52.45
42601;BME280;28229;48.856;9.088;2023-09-08T09:04:48;98178.19;;;26.24;52.12
42601;BME280;28229;48.856;9.088;2023-09-08T09:07:18;98178.41;;;26.53;50.84
42601;BME280;28229;48.856;9.088;2023-09-08T09:09:44;98177.97;;;26.69;50.25
42601;BME280;28229;48.856;9.088;2023-09-08T09:12:11;98174.13;;;26.87;49.54
42601;BME280;28229;48.856;9.088;2023-09-08T09:14:37;98164.59;;;26.98;49.00
42601;BME280;28229;48.856;9.088;2023-09-08T09:17:03;98173.50;;;27.08;49.15
42601;BME280;28229;48.856;9.088;2023-09-08T09:19:31;98175.53;;;27.28;48.84
42601;BME280;28229;48.856;9.088;2023-09-08T09:21:58;98177.22;;;27.50;47.65
42601;BME280;28229;48.856;9.088;2023-09-08T09:24:36;98179.44;;;27.57;47.42
42601;BME280;28229;48.856;9.088;2023-09-08T09:27:12;98185.84;;;27.82;48.29
42601;BME280;28229;48.856;9.088;2023-09-08T09:29:49;98183.06;;;28.08;47.55
42601;BME280;28229;48.856;9.088;2023-09-08T09:32:16;98177.16;;;28.36;46.85
42601;BME280;28229;48.856;9.088;2023-09-08T09:34:50;98179.78;;;28.45;47.40
42601;BME280;28229;48.856;9.088;2023-09-08T09:37:19;98177.53;;;28.56;46.91
42601;BME280;28229;48.856;9.088;2023-09-08T09:39:49;98172.66;;;28.70;45.54
42601;BME280;28229;48.856;9.088;2023-09-08T09:42:17;98172.41;;;28.75;46.65
42601;BME280;28229;48.856;9.088;2023-09-08T09:44:43;98174.47;;;28.78;46.70
42601;BME280;28229;48.856;9.088;2023-09-08T09:47:10;98176.91;;;28.92;46.45
42601;BME280;28229;48.856;9.088;2023-09-08T09:49:44;98183.16;;;29.05;45.93
42601;BME280;28229;48.856;9.088;2023-09-08T09:52:12;98174.13;;;29.01;45.02
42601;BME280;28229;48.856;9.088;2023-09-08T09:54:41;98176.88;;;29.13;44.73
42601;BME280;28229;48.856;9.088;2023-09-08T09:57:12;98163.53;;;29.08;44.56
42601;BME280;28229;48.856;9.088;2023-09-08T09:59:42;98174.69;;;29.28;45.03
42601;BME280;28229;48.856;9.088;2023-09-08T10:02:13;98168.50;;;29.39;44.25
42601;BME280;28229;48.856;9.088;2023-09-08T10:04:42;98173.16;;;29.51;44.11
42601;BME280;28229;48.856;9.088;2023-09-08T10:07:09;98166.16;;;29.62;42.96
42601;BME280;28229;48.856;9.088;2023-09-08T10:09:36;98165.19;;;29.79;43.24
42601;BME280;28229;48.856;9.088;2023-09-08T10:12:04;98168.69;;;29.92;43.59
42601;BME280;28229;48.856;9.088;2023-09-08T10:14:35;98174.75;;;30.26;42.77
42601;BME280;28229;48.856;9.088;2023-09-08T10:17:02;98176.78;;;30.54;41.40
42601;BME280;28229;48.856;9.088;2023-09-08T10:19:32;98164.72;;;30.67;41.01
42601;BME280;28229;48.856;9.088;2023-09-08T10:22:03;98158.63;;;30.70;40.63
42601;BME280;28229;48.856;9.088;2023-09-08T10:24:34;98158.81;;;30.78;41.28
42601;BME280;28229;48.856;9.088;2023-09-08T10:27:08;98158.81;;;30.78;41.14
42601;BME280;28229;48.856;9.088;2023-09-08T10:29:36;98151.53;;;30.94;42.16
42601;BME280;28229;48.856;9.088;2023-09-08T10:32:04;98155.50;;;30.97;41.04
42601;BME280;28229;48.856;9.088;2023-09-08T10:34:32;98161.31;;;31.11;41.58
42601;BME280;28229;48.856;9.088;2023-09-08T10:36:59;98153.97;;;31.43;40.42
42601;BME280;28229;48.856;9.088;2023-09-08T10:39:30;98152.13;;;31.47;39.90
42601;BME280;28229;48.856;9.088;2023-09-08T10:47:31;98147.47;;;31.48;39.84
42601;BME280;28229;48.856;9.088;2023-09-08T10:50:00;98146.88;;;31.55;39.98
42601;BME280;28229;48.856;9.088;2023-09-08T10:52:27;98147.97;;;31.66;40.18
42601;BME280;28229;48.856;9.088;2023-09-08T10:54:54;98151.63;;;31.74;38.98
42601;BME280;28229;48.856;9.088;2023-09-08T10:57:23;98144.41;;;31.81;39.08
42601;BME280;28229;48.856;9.088;2023-09-08T11:00:01;98149.47;;;31.99;38.93
42601;BME280;28229;48.856;9.088;2023-09-08T11:02:34;98154.75;;;32.08;39.46
42601;BME280;28229;48.856;9.088;2023-09-08T11:05:02;98148.78;;;32.02;38.62
42601;BME280;28229;48.856;9.088;2023-09-08T11:07:31;98152.63;;;32.01;38.27
42601;BME280;28229;48.856;9.088;2023-09-08T11:10:00;98147.53;;;32.15;38.66
42601;BME280;28229;48.856;9.088;2023-09-08T11:12:27;98145.41;;;32.24;39.49
42601;BME280;28229;48.856;9.088;2023-09-08T11:14:54;98147.00;;;32.45;37.41
42601;BME280;28229;48.856;9.088;2023-09-08T11:17:25;98147.19;;;32.72;37.70
42601;BME280;28229;48.856;9.088;2023-09-08T11:19:52;98148.31;;;32.71;36.90
42601;BME280;28229;48.856;9.088;2023-09-08T11:22:18;98146.09;;;32.76;37.71
42601;BME280;28229;48.856;9.088;2023-09-08T11:24:44;98139.72;;;32.88;37.46
42601;BME280;28229;48.856;9.088;2023-09-08T11:27:11;98139.56;;;33.00;37.20
42601;BME280;28229;48.856;9.088;2023-09-08T11:29:38;98150.88;;;33.03;36.43
42601;BME280;28229;48.856;9.088;2023-09-08T11:32:07;98137.53;;;32.97;37.11
42601;BME280;28229;48.856;9.088;2023-09-08T11:34:34;98139.69;;;33.08;36.96
42601;BME280;28229;48.856;9.088;2023-09-08T11:37:16;98145.72;;;33.17;36.25
42601;BME280;28229;48.856;9.088;2023-09-08T11:39:45;98131.25;;;32.93;35.94
42601;BME280;28229;48.856;9.088;2023-09-08T11:42:14;98146.13;;;33.19;36.01
42601;BME280;28229;48.856;9.088;2023-09-08T11:44:41;98146.19;;;33.46;34.89
42601;BME280;28229;48.856;9.088;2023-09-08T11:47:08;98139.97;;;33.03;35.10
42601;BME280;28229;48.856;9.088;2023-09-08T11:49:36;98146.06;;;32.96;35.97
42601;BME280;28229;48.856;9.088;2023-09-08T11:52:08;98141.91;;;33.22;35.25
42601;BME280;28229;48.856;9.088;2023-09-08T11:54:35;98143.16;;;33.51;34.98
42601;BME280;28229;48.856;9.088;2023-09-08T11:57:03;98141.25;;;33.74;35.26
42601;BME280;28229;48.856;9.088;2023-09-08T11:59:32;98138.25;;;33.83;34.62
42601;BME280;28229;48.856;9.088;2023-09-08T12:01:59;98139.09;;;33.87;34.79
42601;BME280;28229;48.856;9.088;2023-09-08T12:04:25;98139.72;;;33.77;34.13
42601;BME280;28229;48.856;9.088;2023-09-08T12:06:53;98141.13;;;33.94;34.93
42601;BME280;28229;48.856;9.088;2023-09-08T12:09:23;98135.91;;;33.82;34.69
42601;BME280;28229;48.856;9.088;2023-09-08T12:11:49;98139.94;;;33.91;34.72
42601;BME280;28229;48.856;9.088;2023-09-08T12:14:16;98146.09;;;34.15;34.25
42601;BME280;28229;48.856;9.088;2023-09-08T12:16:42;98135.97;;;33.85;33.25
42601;BME280;28229;48.856;9.088;2023-09-08T12:19:28;98141.94;;;33.94;33.15
42601;BME280;28229;48.856;9.088;2023-09-08T12:21:56;98135.72;;;33.98;32.70
42601;BME280;28229;48.856;9.088;2023-09-08T12:24:48;98128.81;;;34.04;33.52
42601;BME280;28229;48.856;9.088;2023-09-08T12:27:16;98128.66;;;34.20;33.50
42601;BME280;28229;48.856;9.088;2023-09-08T12:29:55;98130.66;;;34.23;33.05
42601;BME280;28229;48.856;9.088;2023-09-08T12:32:23;98127.25;;;34.33;33.07
42601;BME280;28229;48.856;9.088;2023-09-08T12:34:51;98126.56;;;34.40;32.95
42601;BME280;28229;48.856;9.088;2023-09-08T12:37:21;98128.31;;;34.55;32.80
42601;BME280;28229;48.856;9.088;2023-09-08T12:39:47;98123.72;;;34.63;32.35
42601;BME280;28229;48.856;9.088;2023-09-08T12:42:14;98120.34;;;34.73;31.84
42601;BME280;28229;48.856;9.088;2023-09-08T12:44:40;98123.63;;;34.56;31.91
42601;BME280;28229;48.856;9.088;2023-09-08T12:47:10;98121.50;;;34.72;32.92
42601;BME280;28229;48.856;9.088;2023-09-08T12:49:39;98121.63;;;34.83;32.86
42601;BME280;28229;48.856;9.088;2023-09-08T12:52:06;98112.25;;;34.80;31.14
42601;BME280;28229;48.856;9.088;2023-09-08T12:54:32;98114.56;;;34.78;32.52
42601;BME280;28229;48.856;9.088;2023-09-08T12:56:59;98103.09;;;35.03;31.64
42601;BME280;28229;48.856;9.088;2023-09-08T12:59:25;98106.69;;;35.11;30.98
42601;BME280;28229;48.856;9.088;2023-09-08T13:01:51;98097.97;;;34.98;30.41
42601;BME280;28229;48.856;9.088;2023-09-08T13:04:17;98102.25;;;34.99;30.75
42601;BME280;28229;48.856;9.088;2023-09-08T13:06:45;98101.50;;;35.02;31.33
42601;BME280;28229;48.856;9.088;2023-09-08T13:09:11;98102.38;;;35.13;30.82